createdAt,value
2019-05-14T00:00:22.019Z,0.33
2019-05-14T00:01:22.748Z,0.18
2019-05-14T00:02:22.196Z,0.08
2019-05-14T00:03:22.077Z,0.00
2019-05-14T00:04:22.240Z,0.13
2019-05-14T00:05:22.338Z,0.22
2019-05-14T00:06:22.056Z,0.13
2019-05-14T00:07:22.450Z,0.14
2019-05-14T00:08:22.805Z,0.48
2019-05-14T00:09:22.011Z,0.58
2019-05-14T00:10:22.230Z,0.00
2019-05-14T00:11:22.737Z,0.14
2019-05-14T00:12:22.404Z,0.00
2019-05-14T00:13:22.591Z,0.00
2019-05-14T00:14:35.675Z,0.10
2019-05-14T00:15:22.139Z,0.03
2019-05-14T00:16:24.352Z,0.12
2019-05-14T00:17:22.779Z,0.17
2019-05-14T00:18:22.549Z,0.00
2019-05-14T00:19:22.362Z,0.00
2019-05-14T00:20:22.974Z,0.18
2019-05-14T00:21:23.301Z,0.03
2019-05-14T00:22:23.636Z,0.00
2019-05-14T00:23:24.736Z,0.26
2019-05-14T00:24:22.627Z,0.67
2019-05-14T00:25:23.236Z,0.67
2019-05-14T00:26:23.405Z,0.44
2019-05-14T00:27:23.295Z,0.90
2019-05-14T00:28:21.983Z,0.47
2019-05-14T00:29:25.864Z,0.98
2019-05-14T00:30:25.315Z,0.27
2019-05-14T00:31:23.658Z,0.08
2019-05-14T00:32:22.914Z,0.45
2019-05-14T00:33:22.738Z,0.02
2019-05-14T00:34:24.062Z,0.28
2019-05-14T00:35:22.706Z,0.11
2019-05-14T00:36:23.276Z,0.40
2019-05-14T00:37:22.536Z,0.39
2019-05-14T00:38:25.175Z,0.33
2019-05-14T00:39:22.576Z,0.04
2019-05-14T00:40:23.462Z,0.02
2019-05-14T00:41:23.737Z,0.41
2019-05-14T00:42:22.267Z,0.00
2019-05-14T00:43:22.137Z,0.23
2019-05-14T00:44:22.377Z,0.00
2019-05-14T00:45:22.242Z,0.00
2019-05-14T00:46:22.438Z,0.07
2019-05-14T00:47:23.033Z,0.02
2019-05-14T00:48:22.877Z,0.49
2019-05-14T00:49:22.858Z,0.69
2019-05-14T00:50:22.013Z,0.12
2019-05-14T00:51:23.102Z,0.59
2019-05-14T00:52:25.192Z,0.56
2019-05-14T00:53:22.609Z,0.27
2019-05-14T00:54:22.792Z,0.38
2019-05-14T00:55:22.511Z,0.29
2019-05-14T00:56:22.502Z,0.20
2019-05-14T00:57:22.086Z,0.28
2019-05-14T00:58:22.107Z,0.55
2019-05-14T00:59:22.107Z,0.59
2019-05-14T01:00:22.222Z,0.16
2019-05-14T01:01:22.988Z,0.12
2019-05-14T01:02:22.849Z,0.55
2019-05-14T01:03:22.105Z,0.74
2019-05-14T01:04:22.344Z,0.37
2019-05-14T01:05:22.005Z,0.39
2019-05-14T01:06:22.405Z,1.26
2019-05-14T01:07:22.925Z,0.74
2019-05-14T01:08:21.993Z,0.38
2019-05-14T01:09:22.088Z,1.00
2019-05-14T01:10:22.678Z,1.11
2019-05-14T01:11:22.851Z,1.23
2019-05-14T01:12:22.061Z,0.94
2019-05-14T01:13:22.369Z,0.31
2019-05-14T01:14:22.010Z,0.03
2019-05-14T01:15:22.419Z,1.39
2019-05-14T01:16:22.591Z,0.83
2019-05-14T01:17:22.465Z,0.68
2019-05-14T01:18:22.163Z,0.85
2019-05-14T01:19:22.032Z,0.97
2019-05-14T01:20:22.351Z,0.97
2019-05-14T01:21:22.779Z,0.45
2019-05-14T01:22:24.941Z,0.81
2019-05-14T01:23:23.883Z,0.73
2019-05-14T01:24:22.898Z,1.22
2019-05-14T01:25:23.670Z,1.11
2019-05-14T01:26:22.502Z,0.82
2019-05-14T01:27:22.611Z,0.51
2019-05-14T01:28:23.357Z,0.34
2019-05-14T01:29:22.680Z,0.85
2019-05-14T01:30:22.521Z,0.55
2019-05-14T01:31:23.310Z,1.02
2019-05-14T01:32:22.485Z,0.83
2019-05-14T01:33:23.575Z,1.54
2019-05-14T01:34:22.827Z,1.35
2019-05-14T01:35:22.896Z,1.73
2019-05-14T01:36:23.175Z,1.02
2019-05-14T01:37:22.415Z,0.21
2019-05-14T01:38:22.809Z,0.45
2019-05-14T01:39:22.268Z,1.74
2019-05-14T01:40:22.115Z,0.62
2019-05-14T01:41:23.412Z,1.27
2019-05-14T01:42:22.775Z,0.78
2019-05-14T01:43:22.439Z,0.75
2019-05-14T01:44:23.029Z,1.45
2019-05-14T01:45:27.998Z,0.81
2019-05-14T01:46:22.335Z,0.64
2019-05-14T01:47:22.397Z,0.83
2019-05-14T01:48:22.474Z,1.25
2019-05-14T01:49:22.236Z,1.16
2019-05-14T01:50:22.406Z,1.25
2019-05-14T01:51:22.483Z,0.79
2019-05-14T01:52:22.435Z,1.23
2019-05-14T01:53:22.267Z,1.47
2019-05-14T01:54:25.351Z,2.55
2019-05-14T01:55:22.483Z,1.05
2019-05-14T01:56:22.318Z,1.20
2019-05-14T01:57:22.808Z,0.50
2019-05-14T01:58:22.304Z,0.12
2019-05-14T01:59:22.632Z,1.02
2019-05-14T02:00:22.780Z,0.59
2019-05-14T02:01:22.822Z,1.68
2019-05-14T02:02:22.241Z,0.58
2019-05-14T02:03:22.600Z,0.19
2019-05-14T02:04:22.238Z,0.19
2019-05-14T02:05:22.562Z,0.21
2019-05-14T02:06:22.808Z,0.57
2019-05-14T02:07:23.398Z,0.62
2019-05-14T02:08:22.373Z,0.55
2019-05-14T02:09:22.184Z,0.75
2019-05-14T02:10:22.230Z,1.28
2019-05-14T02:11:22.952Z,1.79
2019-05-14T02:12:22.563Z,0.61
2019-05-14T02:13:22.142Z,0.64
2019-05-14T02:14:22.552Z,0.84
2019-05-14T02:15:36.037Z,0.97
2019-05-14T02:16:22.592Z,0.96
2019-05-14T02:17:22.187Z,0.90
2019-05-14T02:18:22.855Z,0.29
2019-05-14T02:19:22.231Z,0.66
2019-05-14T02:20:22.474Z,1.11
2019-05-14T02:21:23.001Z,1.52
2019-05-14T02:22:22.243Z,0.31
2019-05-14T02:23:27.764Z,1.13
2019-05-14T02:24:22.426Z,1.20
2019-05-14T02:25:22.603Z,0.30
2019-05-14T02:26:22.218Z,0.65
2019-05-14T02:27:22.424Z,1.11
2019-05-14T02:28:22.906Z,0.69
2019-05-14T02:29:22.010Z,0.51
2019-05-14T02:30:33.337Z,0.95
2019-05-14T02:31:22.604Z,0.99
2019-05-14T02:32:22.621Z,0.87
2019-05-14T02:33:22.848Z,0.42
2019-05-14T02:34:23.977Z,0.48
2019-05-14T02:35:23.575Z,0.87
2019-05-14T02:36:23.165Z,0.65
2019-05-14T02:37:23.035Z,1.11
2019-05-14T02:38:23.200Z,0.05
2019-05-14T02:39:23.989Z,0.56
2019-05-14T02:40:23.644Z,1.32
2019-05-14T02:41:24.233Z,0.81
2019-05-14T02:42:23.175Z,1.24
2019-05-14T02:43:23.145Z,1.26
2019-05-14T02:44:23.221Z,0.47
2019-05-14T02:45:23.378Z,1.16
2019-05-14T02:46:22.947Z,1.40
2019-05-14T02:47:22.786Z,1.00
2019-05-14T02:48:23.286Z,0.81
2019-05-14T02:49:22.937Z,0.63
2019-05-14T02:50:23.725Z,1.35
2019-05-14T02:51:24.204Z,1.54
2019-05-14T02:52:22.844Z,0.12
2019-05-14T02:53:22.393Z,0.56
2019-05-14T02:54:22.115Z,0.36
2019-05-14T02:55:22.751Z,0.16
2019-05-14T02:56:22.512Z,0.79
2019-05-14T02:57:22.375Z,0.26
2019-05-14T02:58:29.513Z,0.46
2019-05-14T02:59:23.419Z,1.11
2019-05-14T03:00:22.235Z,1.18
2019-05-14T03:01:25.927Z,0.38
2019-05-14T03:02:22.512Z,0.81
2019-05-14T03:03:22.485Z,0.06
2019-05-14T03:04:22.662Z,0.33
2019-05-14T03:05:22.356Z,0.57
2019-05-14T03:06:22.493Z,0.70
2019-05-14T03:07:22.552Z,0.71
2019-05-14T03:08:23.464Z,0.59
2019-05-14T03:09:25.026Z,0.96
2019-05-14T03:10:22.566Z,0.49
2019-05-14T03:11:23.040Z,0.51
2019-05-14T03:12:23.111Z,0.79
2019-05-14T03:13:22.776Z,0.37
2019-05-14T03:14:23.044Z,0.65
2019-05-14T03:15:22.509Z,0.46
2019-05-14T03:16:30.419Z,0.96
2019-05-14T03:17:23.282Z,0.31
2019-05-14T03:18:22.152Z,0.47
2019-05-14T03:19:22.793Z,0.44
2019-05-14T03:20:22.650Z,0.88
2019-05-14T03:21:22.932Z,0.53
2019-05-14T03:22:28.187Z,0.50
2019-05-14T03:23:23.438Z,0.59
2019-05-14T03:24:22.830Z,0.70
2019-05-14T03:25:22.690Z,0.49
2019-05-14T03:26:24.195Z,0.72
2019-05-14T03:27:24.270Z,0.60
2019-05-14T03:28:22.506Z,0.58
2019-05-14T03:29:25.942Z,0.31
2019-05-14T03:30:23.763Z,0.71
2019-05-14T03:31:24.451Z,0.62
2019-05-14T03:32:23.474Z,0.96
2019-05-14T03:33:23.048Z,0.19
2019-05-14T03:34:24.573Z,0.96
2019-05-14T03:35:26.471Z,0.72
2019-05-14T03:36:26.566Z,0.17
2019-05-14T03:37:23.968Z,1.05
2019-05-14T03:38:22.855Z,0.71
2019-05-14T03:39:22.146Z,1.32
2019-05-14T03:40:22.150Z,1.35
2019-05-14T03:41:22.186Z,0.27
2019-05-14T03:42:22.734Z,0.63
2019-05-14T03:43:22.702Z,0.75
2019-05-14T03:44:22.585Z,0.61
2019-05-14T03:45:22.723Z,1.47
2019-05-14T03:46:39.815Z,1.21
2019-05-14T03:47:22.468Z,0.50
2019-05-14T03:48:22.548Z,0.32
2019-05-14T03:49:22.391Z,0.95
2019-05-14T03:50:26.053Z,0.53
2019-05-14T03:51:22.122Z,0.83
2019-05-14T03:52:22.414Z,0.58
2019-05-14T03:53:22.134Z,0.25
2019-05-14T03:54:22.246Z,0.78
2019-05-14T03:55:22.428Z,1.02
2019-05-14T03:56:23.174Z,1.05
2019-05-14T03:57:22.217Z,0.67
2019-05-14T03:58:22.188Z,0.00
2019-05-14T03:59:23.146Z,0.10
2019-05-14T04:00:24.893Z,0.40
2019-05-14T04:01:22.218Z,0.82
2019-05-14T04:02:23.660Z,0.09
2019-05-14T04:03:23.101Z,0.29
2019-05-14T04:04:22.291Z,0.00
2019-05-14T04:05:29.245Z,0.00
2019-05-14T04:06:22.467Z,0.00
2019-05-14T04:07:22.548Z,0.03
2019-05-14T04:08:22.534Z,0.04
2019-05-14T04:09:23.047Z,0.00
2019-05-14T04:10:22.206Z,0.36
2019-05-14T04:11:22.519Z,0.82
2019-05-14T04:12:22.137Z,0.07
2019-05-14T04:13:22.661Z,0.08
2019-05-14T04:14:22.425Z,0.03
2019-05-14T04:15:22.907Z,0.00
2019-05-14T04:16:22.328Z,0.00
2019-05-14T04:17:32.119Z,0.00
2019-05-14T04:18:22.783Z,0.00
2019-05-14T04:19:23.084Z,1.31
2019-05-14T04:20:22.895Z,0.24
2019-05-14T04:21:22.813Z,0.76
2019-05-14T04:22:22.583Z,0.05
2019-05-14T04:23:22.643Z,1.38
2019-05-14T04:24:22.407Z,0.47
2019-05-14T04:25:22.896Z,0.27
2019-05-14T04:26:23.469Z,0.00
2019-05-14T04:27:23.125Z,0.00
2019-05-14T04:28:22.793Z,0.66
2019-05-14T04:29:22.966Z,0.26
2019-05-14T04:30:24.495Z,0.16
2019-05-14T04:31:22.584Z,0.24
2019-05-14T04:32:23.333Z,0.00
2019-05-14T04:33:23.447Z,0.00
2019-05-14T04:34:23.712Z,0.00
2019-05-14T04:35:22.872Z,0.53
2019-05-14T04:36:23.049Z,0.66
2019-05-14T04:37:23.532Z,0.00
2019-05-14T04:38:24.811Z,0.00
2019-05-14T04:39:24.061Z,0.07
2019-05-14T04:40:24.244Z,0.48
2019-05-14T04:41:22.883Z,0.64
2019-05-14T04:42:23.671Z,0.75
2019-05-14T04:43:23.636Z,0.28
2019-05-14T04:44:23.200Z,0.42
2019-05-14T04:45:23.878Z,0.68
2019-05-14T04:46:23.945Z,0.00
2019-05-14T04:47:32.223Z,1.01
2019-05-14T04:48:31.731Z,0.40
2019-05-14T04:49:23.435Z,0.26
2019-05-14T04:50:25.614Z,0.58
2019-05-14T04:51:22.967Z,0.87
2019-05-14T04:52:22.409Z,0.02
2019-05-14T04:53:22.208Z,0.95
2019-05-14T04:54:22.329Z,0.06
2019-05-14T04:55:25.037Z,0.18
2019-05-14T04:56:23.142Z,0.12
2019-05-14T04:57:25.355Z,0.07
2019-05-14T04:58:22.334Z,0.00
2019-05-14T04:59:22.792Z,0.57
2019-05-14T05:00:22.250Z,0.00
2019-05-14T05:01:23.245Z,0.00
2019-05-14T05:02:22.861Z,0.06
2019-05-14T05:03:22.221Z,0.68
2019-05-14T05:04:22.387Z,0.00
2019-05-14T05:05:22.276Z,0.06
2019-05-14T05:06:22.622Z,0.35
2019-05-14T05:07:23.003Z,0.08
2019-05-14T05:08:22.507Z,0.00
2019-05-14T05:09:22.213Z,0.00
2019-05-14T05:10:22.639Z,1.10
2019-05-14T05:11:22.322Z,0.29
2019-05-14T05:12:22.578Z,0.00
2019-05-14T05:13:22.521Z,0.16
2019-05-14T05:14:23.875Z,1.18
2019-05-14T05:15:22.290Z,1.22
2019-05-14T05:16:22.222Z,0.93
2019-05-14T05:17:37.806Z,0.52
2019-05-14T05:18:22.273Z,1.24
2019-05-14T05:19:22.813Z,0.94
2019-05-14T05:20:22.299Z,0.84
2019-05-14T05:21:22.595Z,1.49
2019-05-14T05:22:22.546Z,1.14
2019-05-14T05:23:22.390Z,1.05
2019-05-14T05:24:22.249Z,2.99
2019-05-14T05:25:22.960Z,1.55
2019-05-14T05:26:23.743Z,1.28
2019-05-14T05:27:22.417Z,0.70
2019-05-14T05:28:22.935Z,1.47
2019-05-14T05:29:22.190Z,0.77
2019-05-14T05:30:22.475Z,1.19
2019-05-14T05:31:22.248Z,1.21
2019-05-14T05:32:22.424Z,2.02
2019-05-14T05:33:22.411Z,2.40
2019-05-14T05:34:23.099Z,2.00
2019-05-14T05:35:22.860Z,0.76
2019-05-14T05:36:22.298Z,1.84
2019-05-14T05:37:22.595Z,1.49
2019-05-14T05:38:22.763Z,0.85
2019-05-14T05:39:22.329Z,0.82
2019-05-14T05:40:23.247Z,1.81
2019-05-14T05:41:22.843Z,0.94
2019-05-14T05:42:23.221Z,1.14
2019-05-14T05:43:22.896Z,0.82
2019-05-14T05:44:22.771Z,2.45
2019-05-14T05:45:22.743Z,1.99
2019-05-14T05:46:22.807Z,1.92
2019-05-14T05:47:22.410Z,2.08
2019-05-14T05:48:22.539Z,1.85
2019-05-14T05:49:24.039Z,0.57
2019-05-14T05:50:22.265Z,0.95
2019-05-14T05:51:23.565Z,2.59
2019-05-14T05:52:23.834Z,2.31
2019-05-14T05:53:23.395Z,0.65
2019-05-14T05:54:23.567Z,3.79
2019-05-14T05:55:22.316Z,2.48
2019-05-14T05:56:22.776Z,2.06
2019-05-14T05:57:23.463Z,1.42
2019-05-14T05:58:22.614Z,2.72
2019-05-14T05:59:23.312Z,1.25
2019-05-14T06:00:22.957Z,1.04
2019-05-14T06:01:38.522Z,3.12
2019-05-14T06:02:22.903Z,1.69
2019-05-14T06:03:23.011Z,1.76
2019-05-14T06:04:28.764Z,1.08
2019-05-14T06:05:23.819Z,0.94
2019-05-14T06:06:25.632Z,2.42
2019-05-14T06:07:23.785Z,2.41
2019-05-14T06:08:23.474Z,0.72
2019-05-14T06:09:22.640Z,1.67
2019-05-14T06:10:23.160Z,3.16
2019-05-14T06:11:22.456Z,3.50
2019-05-14T06:12:22.261Z,3.21
2019-05-14T06:13:23.207Z,1.99
2019-05-14T06:14:22.351Z,2.34
2019-05-14T06:15:22.233Z,2.72
2019-05-14T06:16:22.669Z,1.49
2019-05-14T06:17:22.231Z,2.37
2019-05-14T06:18:22.412Z,3.24
2019-05-14T06:19:22.309Z,2.31
2019-05-14T06:20:22.253Z,0.91
2019-05-14T06:21:22.531Z,1.62
2019-05-14T06:22:22.680Z,1.97
2019-05-14T06:23:22.254Z,2.01
2019-05-14T06:24:23.107Z,3.19
2019-05-14T06:25:22.315Z,2.96
2019-05-14T06:26:22.616Z,1.90
2019-05-14T06:27:22.235Z,1.99
2019-05-14T06:28:22.308Z,3.54
2019-05-14T06:29:22.616Z,2.41
2019-05-14T06:30:22.262Z,3.08
2019-05-14T06:31:22.692Z,1.68
2019-05-14T06:32:22.328Z,2.49
2019-05-14T06:33:22.248Z,2.70
2019-05-14T06:34:22.363Z,2.27
2019-05-14T06:35:22.273Z,1.97
2019-05-14T06:36:22.267Z,2.79
2019-05-14T06:37:25.421Z,3.91
2019-05-14T06:38:22.267Z,3.05
2019-05-14T06:39:22.354Z,2.80
2019-05-14T06:40:22.323Z,2.17
2019-05-14T06:41:22.321Z,1.43
2019-05-14T06:42:22.278Z,1.35
2019-05-14T06:43:22.890Z,2.17
2019-05-14T06:44:22.296Z,2.89
2019-05-14T06:45:22.284Z,2.46
2019-05-14T06:46:22.773Z,2.16
2019-05-14T06:47:22.341Z,3.56
2019-05-14T06:48:30.645Z,1.42
2019-05-14T06:49:22.823Z,2.65
2019-05-14T06:50:22.308Z,2.77
2019-05-14T06:51:22.314Z,2.56
2019-05-14T06:52:22.352Z,2.83
2019-05-14T06:53:23.326Z,2.74
2019-05-14T06:54:22.296Z,1.13
2019-05-14T06:55:22.374Z,1.70
2019-05-14T06:56:22.656Z,2.06
2019-05-14T06:57:22.390Z,2.66
2019-05-14T06:58:23.118Z,1.88
2019-05-14T06:59:22.342Z,3.82
2019-05-14T07:00:22.637Z,2.22
2019-05-14T07:01:22.278Z,2.92
2019-05-14T07:02:22.326Z,1.73
2019-05-14T07:03:22.303Z,1.71
2019-05-14T07:04:22.370Z,0.89
2019-05-14T07:05:23.292Z,1.67
2019-05-14T07:06:25.510Z,2.06
2019-05-14T07:07:22.587Z,1.72
2019-05-14T07:08:22.691Z,0.00
2019-05-14T07:09:22.852Z,1.24
2019-05-14T07:10:22.246Z,1.03
2019-05-14T07:11:22.354Z,2.57
2019-05-14T07:12:23.075Z,0.57
2019-05-14T07:13:22.254Z,1.13
2019-05-14T07:14:22.376Z,1.26
2019-05-14T07:15:22.314Z,1.36
2019-05-14T07:16:22.881Z,1.34
2019-05-14T07:17:22.384Z,1.84
2019-05-14T07:18:22.861Z,1.32
2019-05-14T07:19:22.268Z,1.19
2019-05-14T07:20:22.367Z,1.63
2019-05-14T07:21:23.382Z,2.90
2019-05-14T07:22:22.282Z,2.42
2019-05-14T07:23:22.707Z,2.29
2019-05-14T07:24:23.294Z,2.42
2019-05-14T07:25:22.398Z,2.70
2019-05-14T07:26:23.122Z,2.04
2019-05-14T07:27:22.349Z,3.27
2019-05-14T07:28:22.362Z,2.80
2019-05-14T07:29:22.356Z,2.03
2019-05-14T07:30:22.335Z,3.40
2019-05-14T07:31:22.336Z,2.17
2019-05-14T07:32:22.647Z,1.32
2019-05-14T07:33:25.290Z,1.55
2019-05-14T07:34:22.341Z,1.23
2019-05-14T07:35:22.386Z,1.29
2019-05-14T07:36:23.342Z,0.88
2019-05-14T07:37:22.318Z,1.42
2019-05-14T07:38:22.452Z,2.51
2019-05-14T07:39:22.364Z,2.06
2019-05-14T07:40:25.310Z,2.14
2019-05-14T07:41:22.485Z,2.74
2019-05-14T07:42:22.921Z,1.44
2019-05-14T07:43:22.352Z,1.88
2019-05-14T07:44:22.396Z,3.27
2019-05-14T07:45:22.350Z,3.17
2019-05-14T07:46:22.320Z,2.71
2019-05-14T07:47:22.722Z,0.25
2019-05-14T07:48:22.453Z,2.55
2019-05-14T07:49:22.353Z,2.37
2019-05-14T07:50:22.439Z,2.37
2019-05-14T07:51:22.691Z,1.71
2019-05-14T07:52:22.387Z,1.42
2019-05-14T07:53:35.121Z,2.69
2019-05-14T07:54:22.350Z,3.11
2019-05-14T07:55:23.444Z,1.91
2019-05-14T07:56:22.673Z,1.60
2019-05-14T07:57:22.395Z,2.04
2019-05-14T07:58:22.363Z,3.07
2019-05-14T07:59:22.551Z,2.48
2019-05-14T08:00:22.387Z,3.03
2019-05-14T08:01:22.361Z,1.97
2019-05-14T08:02:22.419Z,0.65
2019-05-14T08:03:22.741Z,0.83
2019-05-14T08:04:22.355Z,1.67
2019-05-14T08:05:22.398Z,1.94
2019-05-14T08:06:23.337Z,1.64
2019-05-14T08:07:23.539Z,1.62
2019-05-14T08:08:22.337Z,2.08
2019-05-14T08:09:22.389Z,1.58
2019-05-14T08:10:23.290Z,0.65
2019-05-14T08:11:22.685Z,2.31
2019-05-14T08:12:22.437Z,1.60
2019-05-14T08:13:22.449Z,3.95
2019-05-14T08:14:22.695Z,2.58
2019-05-14T08:15:27.992Z,1.32
2019-05-14T08:16:22.373Z,0.88
2019-05-14T08:17:22.432Z,1.59
2019-05-14T08:18:22.434Z,2.04
2019-05-14T08:19:26.324Z,1.92
2019-05-14T08:20:22.349Z,4.65
2019-05-14T08:21:22.407Z,2.72
2019-05-14T08:22:22.383Z,2.07
2019-05-14T08:23:23.823Z,1.23
2019-05-14T08:24:26.963Z,2.27
2019-05-14T08:25:22.374Z,2.17
2019-05-14T08:26:22.869Z,1.49
2019-05-14T08:27:28.895Z,1.62
2019-05-14T08:28:25.477Z,1.44
2019-05-14T08:29:22.505Z,2.56
2019-05-14T08:30:22.439Z,2.78
2019-05-14T08:31:22.749Z,1.32
2019-05-14T08:32:22.381Z,1.57
2019-05-14T08:33:22.421Z,1.21
2019-05-14T08:34:22.532Z,2.10
2019-05-14T08:35:22.407Z,2.71
2019-05-14T08:36:22.489Z,1.43
2019-05-14T08:37:22.420Z,1.49
2019-05-14T08:38:22.718Z,2.16
2019-05-14T08:39:22.572Z,0.91
2019-05-14T08:40:22.455Z,3.48
2019-05-14T08:41:22.737Z,1.39
2019-05-14T08:42:22.438Z,2.56
2019-05-14T08:43:22.756Z,2.93
2019-05-14T08:44:22.593Z,1.65
2019-05-14T08:45:22.499Z,1.77
2019-05-14T08:46:22.777Z,2.42
2019-05-14T08:47:22.620Z,1.64
2019-05-14T08:48:22.797Z,2.42
2019-05-14T08:49:37.797Z,2.29
2019-05-14T08:50:22.813Z,1.29
2019-05-14T08:51:22.743Z,1.25
2019-05-14T08:52:22.676Z,1.88
2019-05-14T08:53:22.754Z,2.96
2019-05-14T08:54:22.506Z,2.80
2019-05-14T08:55:22.437Z,2.48
2019-05-14T08:56:22.418Z,2.11
2019-05-14T08:57:22.593Z,2.15
2019-05-14T08:58:22.505Z,1.76
2019-05-14T08:59:22.417Z,1.76
2019-05-14T09:00:22.473Z,1.50
2019-05-14T09:01:22.436Z,0.75
2019-05-14T09:02:22.742Z,1.23
2019-05-14T09:03:22.469Z,0.18
2019-05-14T09:04:23.090Z,0.56
2019-05-14T09:05:23.445Z,1.27
2019-05-14T09:06:22.577Z,2.26
2019-05-14T09:07:22.780Z,2.11
2019-05-14T09:08:22.412Z,2.74
2019-05-14T09:09:22.475Z,2.00
2019-05-14T09:10:22.495Z,2.96
2019-05-14T09:11:25.735Z,1.02
2019-05-14T09:12:22.720Z,0.82
2019-05-14T09:13:22.451Z,2.89
2019-05-14T09:14:23.049Z,1.12
2019-05-14T09:15:22.515Z,1.45
2019-05-14T09:16:38.310Z,1.68
2019-05-14T09:17:22.442Z,3.41
2019-05-14T09:18:23.255Z,4.10
2019-05-14T09:19:22.454Z,2.89
2019-05-14T09:20:22.772Z,1.91
2019-05-14T09:21:22.648Z,0.99
2019-05-14T09:22:22.474Z,1.44
2019-05-14T09:23:23.176Z,1.85
2019-05-14T09:24:22.492Z,0.83
2019-05-14T09:25:23.241Z,1.32
2019-05-14T09:26:22.510Z,3.33
2019-05-14T09:27:23.230Z,1.67
2019-05-14T09:28:22.850Z,2.96
2019-05-14T09:29:26.167Z,2.32
2019-05-14T09:30:22.606Z,2.16
2019-05-14T09:31:22.850Z,1.10
2019-05-14T09:32:22.476Z,0.91
2019-05-14T09:33:24.262Z,3.27
2019-05-14T09:34:23.286Z,1.59
2019-05-14T09:35:22.472Z,1.50
2019-05-14T09:36:23.905Z,1.29
2019-05-14T09:37:22.480Z,1.72
2019-05-14T09:38:23.758Z,2.11
2019-05-14T09:39:22.448Z,2.43
2019-05-14T09:40:22.539Z,1.76
2019-05-14T09:41:22.492Z,1.90
2019-05-14T09:42:22.544Z,1.37
2019-05-14T09:43:22.540Z,2.67
2019-05-14T09:44:23.631Z,1.62
2019-05-14T09:45:22.432Z,1.19
2019-05-14T09:46:22.572Z,1.57
2019-05-14T09:47:22.480Z,2.12
2019-05-14T09:48:23.318Z,1.99
2019-05-14T09:49:22.859Z,1.41
2019-05-14T09:50:23.553Z,1.29
2019-05-14T09:51:23.240Z,2.41
2019-05-14T09:52:22.510Z,3.29
2019-05-14T09:53:22.477Z,2.09
2019-05-14T09:54:22.449Z,2.72
2019-05-14T09:55:25.626Z,2.72
2019-05-14T09:56:22.844Z,2.51
2019-05-14T09:57:22.467Z,3.24
2019-05-14T09:58:22.536Z,2.74
2019-05-14T09:59:22.498Z,2.44
2019-05-14T10:00:22.485Z,2.14
2019-05-14T10:01:22.527Z,3.43
2019-05-14T10:02:22.933Z,1.84
2019-05-14T10:03:22.467Z,2.75
2019-05-14T10:04:23.264Z,2.72
2019-05-14T10:05:22.492Z,0.16
2019-05-14T10:06:22.492Z,1.26
2019-05-14T10:07:22.769Z,0.18
2019-05-14T10:08:25.327Z,1.59
2019-05-14T10:09:22.839Z,2.19
2019-05-14T10:10:22.569Z,2.51
2019-05-14T10:11:22.533Z,1.09
2019-05-14T10:12:22.589Z,1.71
2019-05-14T10:13:22.717Z,2.73
2019-05-14T10:14:22.928Z,1.82
2019-05-14T10:15:22.925Z,2.74
2019-05-14T10:16:23.834Z,1.55
2019-05-14T10:17:22.502Z,1.77
2019-05-14T10:18:22.974Z,1.73
2019-05-14T10:19:22.607Z,2.17
2019-05-14T10:20:36.786Z,1.03
2019-05-14T10:21:22.832Z,0.58
2019-05-14T10:22:22.467Z,3.09
2019-05-14T10:23:22.700Z,2.84
2019-05-14T10:24:23.034Z,2.13
2019-05-14T10:25:22.475Z,1.70
2019-05-14T10:26:22.721Z,2.11
2019-05-14T10:27:22.513Z,2.32
2019-05-14T10:28:23.433Z,1.42
2019-05-14T10:29:23.191Z,2.06
2019-05-14T10:30:22.507Z,2.52
2019-05-14T10:31:22.600Z,2.76
2019-05-14T10:32:22.539Z,2.86
2019-05-14T10:33:22.527Z,2.25
2019-05-14T10:34:22.679Z,2.47
2019-05-14T10:35:22.551Z,1.75
2019-05-14T10:36:22.873Z,1.89
2019-05-14T10:37:22.481Z,3.06
2019-05-14T10:38:22.559Z,3.20
2019-05-14T10:39:22.550Z,2.08
2019-05-14T10:40:22.585Z,1.56
2019-05-14T10:41:23.288Z,2.56
2019-05-14T10:42:22.549Z,2.73
2019-05-14T10:43:22.579Z,3.01
2019-05-14T10:44:22.918Z,3.42
2019-05-14T10:45:22.799Z,2.07
2019-05-14T10:46:22.620Z,1.81
2019-05-14T10:47:22.916Z,3.65
2019-05-14T10:48:22.891Z,3.36
2019-05-14T10:49:23.638Z,4.29
2019-05-14T10:50:22.553Z,3.37
2019-05-14T10:51:23.315Z,3.06
2019-05-14T10:52:22.511Z,1.73
2019-05-14T10:53:22.953Z,1.40
2019-05-14T10:54:25.850Z,2.11
2019-05-14T10:55:22.543Z,1.62
2019-05-14T10:56:22.856Z,1.41
2019-05-14T10:57:22.536Z,1.48
2019-05-14T10:58:22.537Z,2.79
2019-05-14T10:59:22.681Z,3.31
2019-05-14T11:00:22.944Z,2.97
2019-05-14T11:01:23.608Z,2.05
2019-05-14T11:02:22.625Z,1.20
2019-05-14T11:03:22.579Z,2.67
2019-05-14T11:04:22.543Z,1.80
2019-05-14T11:05:23.743Z,2.32
2019-05-14T11:06:22.907Z,2.09
2019-05-14T11:07:23.085Z,2.97
2019-05-14T11:08:22.605Z,1.58
2019-05-14T11:09:22.595Z,2.11
2019-05-14T11:10:23.147Z,2.75
2019-05-14T11:11:22.646Z,2.85
2019-05-14T11:12:23.581Z,1.20
2019-05-14T11:13:23.541Z,1.23
2019-05-14T11:14:22.632Z,1.46
2019-05-14T11:15:22.574Z,1.70
2019-05-14T11:16:23.191Z,3.54
2019-05-14T11:17:22.631Z,2.80
2019-05-14T11:18:22.586Z,1.19
2019-05-14T11:19:22.556Z,1.75
2019-05-14T11:20:23.361Z,2.76
2019-05-14T11:21:26.776Z,3.72
2019-05-14T11:22:22.593Z,1.57
2019-05-14T11:23:22.823Z,1.05
2019-05-14T11:24:22.633Z,1.44
2019-05-14T11:25:22.904Z,3.08
2019-05-14T11:26:24.846Z,1.79
2019-05-14T11:27:22.613Z,1.31
2019-05-14T11:28:22.591Z,3.71
2019-05-14T11:29:22.631Z,1.74
2019-05-14T11:30:22.621Z,2.96
2019-05-14T11:31:22.623Z,2.42
2019-05-14T11:32:22.685Z,2.05
2019-05-14T11:33:22.632Z,1.42
2019-05-14T11:34:23.293Z,2.34
2019-05-14T11:35:22.661Z,2.58
2019-05-14T11:36:22.994Z,3.51
2019-05-14T11:37:22.595Z,3.64
2019-05-14T11:38:33.803Z,1.34
2019-05-14T11:39:22.605Z,1.08
2019-05-14T11:40:22.561Z,1.22
2019-05-14T11:41:22.529Z,1.66
2019-05-14T11:42:23.002Z,2.92
2019-05-14T11:43:22.575Z,3.61
2019-05-14T11:44:23.372Z,2.89
2019-05-14T11:45:22.626Z,2.94
2019-05-14T11:46:29.100Z,2.22
2019-05-14T11:47:23.404Z,1.63
2019-05-14T11:48:22.634Z,2.39
2019-05-14T11:49:23.237Z,1.30
2019-05-14T11:50:22.696Z,1.81
2019-05-14T11:51:53.017Z,1.31
2019-05-14T11:52:23.235Z,1.30
2019-05-14T11:53:23.014Z,1.42
2019-05-14T11:54:23.226Z,2.73
2019-05-14T11:55:23.320Z,2.80
2019-05-14T11:56:22.664Z,1.92
2019-05-14T11:57:22.635Z,2.13
2019-05-14T11:58:23.977Z,2.04
2019-05-14T11:59:22.572Z,1.84
2019-05-14T12:00:25.790Z,2.20
2019-05-14T12:01:22.749Z,1.37
2019-05-14T12:02:22.734Z,3.81
2019-05-14T12:03:23.061Z,4.12
2019-05-14T12:04:22.642Z,2.64
2019-05-14T12:05:22.696Z,1.89
2019-05-14T12:06:23.821Z,0.41
2019-05-14T12:07:23.041Z,1.46
2019-05-14T12:08:25.190Z,3.32
2019-05-14T12:09:23.429Z,3.00
2019-05-14T12:10:22.665Z,1.93
2019-05-14T12:11:22.948Z,1.85
2019-05-14T12:12:25.427Z,2.09
2019-05-14T12:13:22.988Z,3.00
2019-05-14T12:14:23.761Z,1.36
2019-05-14T12:15:23.720Z,2.01
2019-05-14T12:16:23.006Z,1.14
2019-05-14T12:17:22.604Z,1.88
2019-05-14T12:18:22.658Z,1.69
2019-05-14T12:19:22.663Z,2.13
2019-05-14T12:20:22.637Z,2.47
2019-05-14T12:21:22.682Z,3.02
2019-05-14T12:22:22.641Z,1.77
2019-05-14T12:23:22.938Z,2.92
2019-05-14T12:24:22.922Z,1.12
2019-05-14T12:25:22.770Z,1.23
2019-05-14T12:26:22.599Z,2.65
2019-05-14T12:27:22.707Z,1.53
2019-05-14T12:28:22.693Z,1.80
2019-05-14T12:29:25.488Z,0.86
2019-05-14T12:30:23.462Z,1.48
2019-05-14T12:31:22.682Z,1.37
2019-05-14T12:32:23.274Z,3.34
2019-05-14T12:33:22.709Z,1.96
2019-05-14T12:34:22.676Z,1.35
2019-05-14T12:35:22.654Z,0.90
2019-05-14T12:36:23.481Z,3.00
2019-05-14T12:37:22.668Z,2.55
2019-05-14T12:38:23.179Z,2.27
2019-05-14T12:39:22.698Z,2.86
2019-05-14T12:40:23.720Z,2.79
2019-05-14T12:41:22.803Z,1.67
2019-05-14T12:42:23.152Z,1.94
2019-05-14T12:43:22.676Z,1.57
2019-05-14T12:44:22.908Z,0.90
2019-05-14T12:45:22.731Z,1.41
2019-05-14T12:46:23.028Z,2.81
2019-05-14T12:47:22.653Z,3.08
2019-05-14T12:48:22.740Z,2.49
2019-05-14T12:49:23.046Z,2.26
2019-05-14T12:50:22.685Z,1.48
2019-05-14T12:51:22.839Z,2.49
2019-05-14T12:52:26.042Z,0.97
2019-05-14T12:53:22.673Z,0.74
2019-05-14T12:54:22.743Z,2.74
2019-05-14T12:55:22.689Z,0.98
2019-05-14T12:56:23.026Z,0.23
2019-05-14T12:57:22.781Z,0.64
2019-05-14T12:58:23.049Z,0.69
2019-05-14T12:59:23.011Z,1.92
2019-05-14T13:00:22.753Z,1.43
2019-05-14T13:01:22.741Z,1.55
2019-05-14T13:02:22.661Z,3.09
2019-05-14T13:03:22.748Z,0.77
2019-05-14T13:04:22.753Z,1.02
2019-05-14T13:05:22.688Z,2.11
2019-05-14T13:06:22.955Z,2.37
2019-05-14T13:07:22.707Z,3.02
2019-05-14T13:08:22.702Z,3.31
2019-05-14T13:09:22.763Z,1.63
2019-05-14T13:10:22.722Z,0.85
2019-05-14T13:11:22.769Z,0.95
2019-05-14T13:12:22.767Z,1.11
2019-05-14T13:13:22.733Z,1.38
2019-05-14T13:14:22.705Z,2.34
2019-05-14T13:15:23.109Z,1.59
2019-05-14T13:16:22.757Z,1.50
2019-05-14T13:17:22.699Z,1.83
2019-05-14T13:18:22.738Z,1.44